Portada
METAR-TAF:

METAR-TAF

Aeroports :

Aeroport de Bata

Bata, Guinea Equatorial

latitud: 1-54-15N, longitud: 9-48-15E, altitud: 4 m

Observació

L'informe es va fer fa 41 minuts, a les 10:00 UTC
Vent 8 kt del Est
Temperatura 30°C
Humitat 62%
Pressió 1013 hPa
Visibilitat 10 km o més
Núvols disperses a una alçada de 1000 ft

METAR: FGBT 091000Z 10008KT 9999 SCT010 30/22 Q1013

Hora: 11:41 (10:41 UTC)

Pronòstic

L'informe es va fer fa 5 hores i 41 minuts, a les 05:00 UTC
Pronòstic vàlid del 09 a les 06 UTC al 10 a les 06 UTC
Vent 5 kt del Sud
Visibilitat 10 km o més
Núvols disperses a una alçada de 1000 ft

TAF: FGBT 090500Z 0906/1006 18005KT 9999 SCT010

Observacions i pronòstics meteorològics de més de 4000 aeroports (METAR i TAF).

Les estacions disponibles són els punts grocs i vermells al mapa.

Posi el ratolí al punt desitjat per veure el nom de l'estació.

Feu clic per veure les observacions i els pronòstics meteorològics.

Per canviar el mapa: feu clic els botons verds amb una creu de color negre per apropar; al botó verd amb un guió per allunyar la imatge; o en les fletxes verdes per a mapes adjacents.


METAR-TAF: